Time;durP1;ratioP1;P1;durP2;ratioP2;P2;SDS_P1;SDS_P2;PMS_P1;PMS_P2;Temp;Humidity;BMP_temperature;BMP_pressure;BME280_temperature;BME280_humidity;BME280_pressure;Samples;Min_cycle;Max_cycle;Signal;HPM_P1;HPM_P2
2022/04/11 00:00:48;;;;;;;8.03;2.60;;;3.50;99.90;;;;;;5012133;28;20491;-79
2022/04/11 00:03:15;;;;;;;3.80;2.50;;;3.50;99.90;;;;;;5013459;28;20457;-81
2022/04/11 00:05:42;;;;;;;4.53;2.30;;;3.50;99.90;;;;;;5012943;28;20510;-78
2022/04/11 00:08:09;;;;;;;7.63;2.70;;;3.50;99.90;;;;;;5012959;28;20455;-78
2022/04/11 00:10:36;;;;;;;8.47;3.17;;;3.50;99.90;;;;;;5015092;28;20467;-78
2022/04/11 00:13:03;;;;;;;4.40;2.40;;;3.50;99.90;;;;;;5011764;28;20728;-77
2022/04/11 00:15:55;;;;;;;3.93;2.30;;;3.50;99.90;;;;;;5009832;28;20514;-79
2022/04/11 00:18:22;;;;;;;5.60;3.03;;;3.50;99.90;;;;;;5017471;28;20450;-78
2022/04/11 00:20:49;;;;;;;5.00;2.80;;;3.50;99.90;;;;;;5023709;28;20470;-79
2022/04/11 00:23:15;;;;;;;3.63;2.33;;;3.50;99.90;;;;;;5018956;28;20536;-78
2022/04/11 00:25:42;;;;;;;3.67;2.27;;;3.60;99.90;;;;;;5015868;28;20452;-79
2022/04/11 00:28:09;;;;;;;7.83;2.40;;;3.60;99.90;;;;;;5007681;28;20449;-79
2022/04/11 00:30:36;;;;;;;3.47;2.30;;;3.60;99.90;;;;;;5016185;28;20481;-79
2022/04/11 00:33:04;;;;;;;6.43;3.10;;;3.60;99.90;;;;;;5003274;28;20534;-80
2022/04/11 00:35:31;;;;;;;4.20;2.50;;;3.60;99.90;;;;;;4997277;28;20489;-80
2022/04/11 00:37:58;;;;;;;5.13;2.40;;;3.60;99.90;;;;;;4998282;28;20450;-80
2022/04/11 00:40:25;;;;;;;3.40;2.17;;;3.60;99.90;;;;;;4996878;28;20476;-80
2022/04/11 00:42:52;;;;;;;4.63;2.33;;;3.60;99.90;;;;;;5012636;28;20458;-79
2022/04/11 00:45:18;;;;;;;3.73;2.50;;;3.60;99.90;;;;;;5011526;28;20454;-80
2022/04/11 00:47:45;;;;;;;3.93;2.80;;;3.70;99.90;;;;;;4997337;28;20543;-80
2022/04/11 00:50:17;;;;;;;3.60;2.20;;;3.70;99.90;;;;;;5010524;28;20477;-78
2022/04/11 00:52:48;;;;;;;4.23;2.60;;;3.70;99.90;;;;;;4996481;28;20523;-79
2022/04/11 00:55:16;;;;;;;3.40;2.37;;;3.70;99.90;;;;;;5009261;28;20580;-79
2022/04/11 00:57:43;;;;;;;5.53;2.30;;;3.70;99.90;;;;;;4998099;28;20460;-79
2022/04/11 01:00:13;;;;;;;3.47;1.93;;;3.70;99.90;;;;;;5009325;28;20481;-79
2022/04/11 01:02:40;;;;;;;6.37;2.80;;;3.70;99.90;;;;;;5016342;28;20809;-79
2022/04/11 01:05:08;;;;;;;4.03;2.33;;;3.70;99.90;;;;;;5005919;28;20469;-79
2022/04/11 01:07:36;;;;;;;5.67;2.80;;;3.70;99.90;;;;;;4998139;28;20450;-80
2022/04/11 01:10:04;;;;;;;3.63;2.50;;;3.70;99.90;;;;;;5007856;28;20943;-79
2022/04/11 01:12:31;;;;;;;3.37;2.30;;;3.70;99.90;;;;;;5011475;28;20461;-79
2022/04/11 01:14:58;;;;;;;7.60;2.80;;;3.70;99.90;;;;;;5005274;28;20459;-79
2022/04/11 01:17:33;;;;;;;10.00;3.87;;;3.70;99.90;;;;;;4996620;28;20467;-80
2022/04/11 01:19:59;;;;;;;4.37;2.00;;;3.60;99.90;;;;;;4999295;28;21000;-79
2022/04/11 01:22:27;;;;;;;4.97;2.10;;;3.70;99.90;;;;;;4998084;28;20458;-79
2022/04/11 01:24:54;;;;;;;3.57;2.50;;;3.60;99.90;;;;;;5015494;28;20460;-79
2022/04/11 01:27:22;;;;;;;2.63;1.70;;;3.70;99.90;;;;;;5013898;28;20450;-79
2022/04/11 01:29:49;;;;;;;4.17;2.47;;;3.70;99.90;;;;;;4997195;28;20485;-79
2022/04/11 01:32:15;;;;;;;3.53;1.90;;;3.70;99.90;;;;;;4996165;28;20464;-79
2022/04/11 01:34:42;;;;;;;6.07;2.80;;;3.70;99.90;;;;;;5015024;28;20457;-79
2022/04/11 01:37:09;;;;;;;2.80;2.33;;;3.70;99.90;;;;;;5014255;28;21060;-79
2022/04/11 01:39:39;;;;;;;3.50;2.20;;;3.70;99.90;;;;;;4999762;28;20496;-80
2022/04/11 01:42:06;;;;;;;4.40;1.80;;;3.70;99.90;;;;;;5004459;28;20451;-79
2022/04/11 01:44:33;;;;;;;3.63;2.00;;;3.70;99.90;;;;;;4995217;28;20454;-79
2022/04/11 01:46:59;;;;;;;5.17;2.00;;;3.70;99.90;;;;;;5005267;28;20446;-79
2022/04/11 01:49:26;;;;;;;4.70;2.00;;;3.70;99.90;;;;;;5015930;28;20492;-80
2022/04/11 01:51:53;;;;;;;2.77;1.90;;;3.70;99.90;;;;;;5008203;28;20902;-79
2022/04/11 01:54:20;;;;;;;5.13;1.67;;;3.70;99.90;;;;;;5005482;28;20453;-80
2022/04/11 01:56:48;;;;;;;8.30;2.93;;;3.70;99.90;;;;;;5002559;28;20508;-79
2022/04/11 01:59:16;;;;;;;3.43;2.20;;;3.70;99.90;;;;;;5010736;28;20449;-79
2022/04/11 02:01:43;;;;;;;2.80;1.83;;;3.70;99.90;;;;;;4999908;28;20470;-79
2022/04/11 02:04:10;;;;;;;9.07;2.03;;;3.80;99.90;;;;;;5007302;28;20960;-79
2022/04/11 02:06:37;;;;;;;4.90;1.93;;;3.80;99.90;;;;;;5004370;28;20474;-79
2022/04/11 02:09:04;;;;;;;2.97;1.93;;;3.80;99.90;;;;;;5011549;28;20458;-79
2022/04/11 02:11:32;;;;;;;3.47;2.20;;;3.80;99.90;;;;;;5014195;28;20463;-79
2022/04/11 02:14:00;;;;;;;3.77;1.80;;;3.80;99.90;;;;;;5017327;28;20461;-80
2022/04/11 02:16:27;;;;;;;3.77;2.57;;;3.80;99.90;;;;;;5004290;28;20480;-79
2022/04/11 02:18:53;;;;;;;2.53;1.77;;;3.80;99.90;;;;;;5004183;28;20451;-80
2022/04/11 02:21:20;;;;;;;3.37;2.10;;;3.90;99.90;;;;;;5013645;28;20481;-79
2022/04/11 02:23:47;;;;;;;5.37;2.03;;;3.80;99.90;;;;;;5005454;28;20455;-79
2022/04/11 02:26:14;;;;;;;4.47;1.57;;;3.90;99.90;;;;;;5014506;28;20462;-79
2022/04/11 02:28:40;;;;;;;3.77;1.60;;;3.90;99.90;;;;;;4998094;28;20467;-79
2022/04/11 02:31:08;;;;;;;5.00;1.73;;;3.90;99.90;;;;;;5006097;28;20485;-79
2022/04/11 02:33:35;;;;;;;5.67;2.10;;;4.00;99.90;;;;;;5017423;28;20540;-80
2022/04/11 02:36:02;;;;;;;3.47;1.80;;;4.00;99.90;;;;;;5011097;28;20478;-80
2022/04/11 02:38:29;;;;;;;3.43;1.90;;;4.00;99.90;;;;;;5000271;28;20545;-79
2022/04/11 02:40:56;;;;;;;5.27;2.20;;;4.00;99.90;;;;;;5011600;28;20492;-79
2022/04/11 02:43:22;;;;;;;2.80;1.63;;;4.00;99.90;;;;;;4997069;28;20457;-80
2022/04/11 02:45:49;;;;;;;2.97;1.93;;;4.10;99.90;;;;;;5001800;28;20451;-78
2022/04/11 02:48:18;;;;;;;3.90;1.80;;;4.10;99.90;;;;;;5003695;28;20458;-79
2022/04/11 02:50:44;;;;;;;3.10;1.97;;;4.20;99.90;;;;;;5018037;28;20474;-79
2022/04/11 02:53:11;;;;;;;5.43;2.30;;;4.20;99.90;;;;;;5015565;28;20450;-80
2022/04/11 02:55:38;;;;;;;5.20;1.50;;;4.20;99.90;;;;;;5015915;28;20550;-78
2022/04/11 02:58:05;;;;;;;3.50;1.67;;;4.20;99.90;;;;;;5015057;28;20500;-80
2022/04/11 03:00:32;;;;;;;5.87;2.03;;;4.20;99.90;;;;;;4998511;28;20559;-80
2022/04/11 03:02:59;;;;;;;3.70;2.03;;;4.20;99.90;;;;;;5001908;28;20596;-79
2022/04/11 03:05:27;;;;;;;3.97;2.10;;;4.20;99.90;;;;;;5017113;28;20454;-79
2022/04/11 03:07:54;;;;;;;5.67;2.20;;;4.20;99.90;;;;;;4999936;28;20457;-78
2022/04/11 03:10:20;;;;;;;3.40;1.70;;;4.20;99.90;;;;;;4999399;28;20479;-80
2022/04/11 03:12:47;;;;;;;3.27;1.70;;;4.20;99.90;;;;;;5014291;28;20456;-80
2022/04/11 03:15:14;;;;;;;3.80;1.77;;;4.30;99.90;;;;;;5017753;28;20451;-78
2022/04/11 03:17:41;;;;;;;3.33;1.70;;;4.30;99.90;;;;;;5004361;28;20486;-78
2022/04/11 03:20:09;;;;;;;3.53;1.80;;;4.30;99.90;;;;;;5013718;28;20822;-80
2022/04/11 03:22:37;;;;;;;3.63;1.90;;;4.30;99.90;;;;;;5009815;28;20462;-80
2022/04/11 03:25:05;;;;;;;3.80;2.20;;;4.30;99.90;;;;;;4996527;28;20803;-79
2022/04/11 03:27:32;;;;;;;5.93;2.33;;;4.30;99.90;;;;;;4997924;28;20456;-80
2022/04/11 03:29:59;;;;;;;2.60;1.70;;;4.30;99.90;;;;;;4996548;28;20481;-79
2022/04/11 03:32:25;;;;;;;7.33;2.10;;;4.30;99.90;;;;;;5010587;28;20455;-79
2022/04/11 03:34:52;;;;;;;4.67;2.40;;;4.30;99.90;;;;;;5015712;28;20545;-80
2022/04/11 03:37:19;;;;;;;5.33;2.00;;;4.30;99.90;;;;;;5014037;28;20488;-80
2022/04/11 03:39:47;;;;;;;3.70;1.70;;;4.20;99.90;;;;;;5016021;28;20476;-80
2022/04/11 03:42:14;;;;;;;3.43;1.63;;;4.20;99.90;;;;;;5004742;28;20471;-80
2022/04/11 03:44:42;;;;;;;3.10;2.20;;;4.20;99.90;;;;;;5002898;28;20451;-79
2022/04/11 03:47:09;;;;;;;3.97;2.13;;;4.20;99.90;;;;;;5008425;28;20992;-79
2022/04/11 03:49:36;;;;;;;4.57;2.50;;;4.20;99.90;;;;;;5016527;28;20476;-79
2022/04/11 03:52:03;;;;;;;5.63;2.20;;;4.20;99.90;;;;;;5015466;28;20458;-79
2022/04/11 03:54:30;;;;;;;3.50;1.93;;;4.10;99.90;;;;;;5015398;28;20511;-80
2022/04/11 03:56:58;;;;;;;3.60;1.77;;;4.10;99.90;;;;;;5007877;28;20489;-80
2022/04/11 03:59:25;;;;;;;5.00;2.53;;;4.10;99.90;;;;;;4995692;28;20522;-80
2022/04/11 04:01:51;;;;;;;2.97;1.87;;;4.00;99.90;;;;;;4999133;28;20458;-79
2022/04/11 04:04:18;;;;;;;6.23;2.27;;;3.90;99.90;;;;;;4995444;28;20465;-79
2022/04/11 04:06:45;;;;;;;6.27;2.10;;;3.90;99.90;;;;;;5005233;28;20462;-80
2022/04/11 04:09:12;;;;;;;3.43;2.20;;;3.80;99.90;;;;;;5017263;28;20448;-79
2022/04/11 04:11:38;;;;;;;4.30;1.93;;;3.80;99.90;;;;;;5011550;28;20540;-78
2022/04/11 04:14:07;;;;;;;4.50;2.30;;;3.70;99.90;;;;;;5003775;28;20461;-79
2022/04/11 04:16:33;;;;;;;7.10;2.50;;;3.60;99.90;;;;;;4995116;28;21032;-79
2022/04/11 04:19:00;;;;;;;3.70;2.10;;;3.60;99.90;;;;;;5015414;28;20838;-79
2022/04/11 04:21:27;;;;;;;5.03;2.33;;;3.60;99.90;;;;;;5004927;28;20873;-78
2022/04/11 04:23:54;;;;;;;5.50;2.43;;;3.50;99.90;;;;;;4995788;28;20456;-79
2022/04/11 04:26:20;;;;;;;2.80;1.93;;;3.50;99.90;;;;;;5004688;28;20450;-78
2022/04/11 04:28:47;;;;;;;3.30;2.30;;;3.50;99.90;;;;;;5015390;28;20471;-78
2022/04/11 04:31:15;;;;;;;3.33;1.90;;;3.40;99.90;;;;;;5014749;28;20473;-78
2022/04/11 04:33:42;;;;;;;6.13;2.37;;;3.40;99.90;;;;;;5014158;28;20450;-78
2022/04/11 04:36:09;;;;;;;3.20;1.97;;;3.40;99.90;;;;;;5013254;28;20459;-79
2022/04/11 04:38:35;;;;;;;2.70;1.80;;;3.40;99.90;;;;;;5017541;28;20486;-80
2022/04/11 04:41:02;;;;;;;6.43;2.27;;;3.40;99.90;;;;;;5015995;28;20476;-78
2022/04/11 04:43:29;;;;;;;3.30;2.20;;;3.30;99.90;;;;;;5015554;28;21063;-78
2022/04/11 04:45:56;;;;;;;3.90;2.20;;;3.30;99.90;;;;;;5007027;28;20462;-79
2022/04/11 04:48:24;;;;;;;5.90;2.37;;;3.30;99.90;;;;;;4996890;28;20457;-78
2022/04/11 04:50:50;;;;;;;3.77;2.23;;;3.30;99.90;;;;;;5010402;28;20478;-78
2022/04/11 04:53:17;;;;;;;3.60;2.40;;;3.30;99.90;;;;;;5015599;28;20476;-78
2022/04/11 04:55:44;;;;;;;3.97;2.23;;;3.30;99.90;;;;;;5011284;28;20458;-79
2022/04/11 04:58:11;;;;;;;4.23;2.20;;;3.30;99.90;;;;;;5001602;28;20486;-79
2022/04/11 05:00:38;;;;;;;3.23;2.20;;;3.30;99.90;;;;;;4997403;28;20718;-79
2022/04/11 05:03:05;;;;;;;5.90;3.07;;;3.20;99.90;;;;;;4994743;28;20456;-79
2022/04/11 05:05:35;;;;;;;2.43;1.77;;;3.20;99.90;;;;;;4996526;28;20455;-79
2022/04/11 05:08:01;;;;;;;3.67;1.83;;;3.20;99.90;;;;;;4995664;28;20505;-78
2022/04/11 05:10:28;;;;;;;4.80;2.17;;;3.20;99.90;;;;;;5008823;28;20484;-78
2022/04/11 05:12:55;;;;;;;3.40;2.20;;;3.20;99.90;;;;;;5015644;28;20450;-79
2022/04/11 05:15:23;;;;;;;4.10;2.60;;;3.20;99.90;;;;;;5003208;28;20889;-79
2022/04/11 05:17:50;;;;;;;4.27;2.90;;;3.20;99.90;;;;;;4995454;28;20489;-79
2022/04/11 05:20:16;;;;;;;4.83;2.10;;;3.20;99.90;;;;;;4995329;28;20864;-79
2022/04/11 05:22:45;;;;;;;3.73;2.17;;;3.30;99.90;;;;;;4996472;28;20986;-79
2022/04/11 05:25:11;;;;;;;4.13;2.23;;;3.30;99.90;;;;;;4994704;28;20450;-78
2022/04/11 05:27:38;;;;;;;5.27;2.67;;;3.30;99.90;;;;;;4998814;28;20829;-77
2022/04/11 05:30:06;;;;;;;5.63;2.60;;;3.30;99.90;;;;;;5011443;28;20483;-78
2022/04/11 05:32:33;;;;;;;7.10;2.40;;;3.30;99.90;;;;;;5018955;28;20986;-79
2022/04/11 05:35:00;;;;;;;3.60;2.23;;;3.30;99.90;;;;;;5017981;28;20508;-79
2022/04/11 05:37:27;;;;;;;4.60;2.10;;;3.40;99.90;;;;;;5018112;28;21113;-78
2022/04/11 05:39:58;;;;;;;7.30;2.20;;;3.40;99.90;;;;;;5014600;28;20510;-78
2022/04/11 05:42:24;;;;;;;3.20;2.20;;;3.50;99.90;;;;;;5007548;28;20446;-79
2022/04/11 05:44:51;;;;;;;5.57;2.83;;;3.50;99.90;;;;;;5007597;28;20449;-78
2022/04/11 05:47:18;;;;;;;4.63;2.83;;;3.60;99.90;;;;;;5008148;28;20443;-77
2022/04/11 05:49:45;;;;;;;5.50;2.93;;;3.70;99.90;;;;;;5005440;28;20472;-78
2022/04/11 05:52:18;;;;;;;3.80;2.60;;;3.70;99.90;;;;;;5000685;28;21051;-79
2022/04/11 05:54:45;;;;;;;5.67;2.83;;;3.80;99.90;;;;;;5004385;28;20837;-78
2022/04/11 05:57:14;;;;;;;4.17;2.90;;;3.80;99.90;;;;;;5006694;28;20508;-79
2022/04/11 05:59:40;;;;;;;6.30;3.70;;;4.00;99.90;;;;;;5003790;28;20475;-79
2022/04/11 06:02:09;;;;;;;7.70;3.20;;;4.10;99.90;;;;;;5004733;28;20448;-79
2022/04/11 06:04:36;;;;;;;5.90;3.10;;;4.20;99.90;;;;;;5001912;28;20987;-78
2022/04/11 06:07:04;;;;;;;6.30;3.43;;;4.40;99.90;;;;;;5005705;28;20453;-79
2022/04/11 06:09:31;;;;;;;7.10;3.00;;;4.60;99.90;;;;;;5004038;28;21026;-78
2022/04/11 06:11:58;;;;;;;9.33;2.50;;;4.70;99.90;;;;;;5022125;28;20460;-78
2022/04/11 06:14:26;;;;;;;4.10;2.27;;;4.90;99.90;;;;;;5009989;28;20459;-78
2022/04/11 06:16:53;;;;;;;6.67;2.60;;;5.20;99.90;;;;;;5016101;28;20505;-78
2022/04/11 06:19:20;;;;;;;6.63;2.97;;;5.50;99.90;;;;;;5018987;28;20454;-78
2022/04/11 06:21:46;;;;;;;4.57;2.30;;;5.70;99.90;;;;;;5014927;28;20487;-79
2022/04/11 06:24:13;;;;;;;4.60;2.37;;;5.90;99.90;;;;;;5011207;28;20452;-78
2022/04/11 06:26:40;;;;;;;4.30;2.50;;;6.10;99.90;;;;;;5016473;28;21241;-78
2022/04/11 06:29:07;;;;;;;4.77;3.00;;;6.20;99.90;;;;;;5004344;28;20972;-78
2022/04/11 06:31:35;;;;;;;3.23;2.10;;;6.30;99.90;;;;;;5013031;28;20957;-79
2022/04/11 06:34:03;;;;;;;3.40;1.90;;;6.30;99.90;;;;;;5012531;28;20468;-78
2022/04/11 06:36:30;;;;;;;5.20;2.20;;;6.30;99.90;;;;;;5012586;28;20461;-78
2022/04/11 06:38:56;;;;;;;4.67;2.17;;;6.50;99.90;;;;;;5018867;28;20484;-78
2022/04/11 06:41:23;;;;;;;6.97;2.70;;;6.60;99.90;;;;;;5009183;28;20588;-77
2022/04/11 06:43:50;;;;;;;8.17;2.70;;;6.70;99.90;;;;;;5011158;28;20459;-77
2022/04/11 06:46:17;;;;;;;4.37;1.97;;;6.80;99.90;;;;;;4998898;28;20457;-77
2022/04/11 06:48:45;;;;;;;3.43;2.07;;;6.90;99.90;;;;;;5004640;28;21150;-78
2022/04/11 06:51:12;;;;;;;4.67;2.23;;;7.20;99.90;;;;;;5011963;28;20494;-78
2022/04/11 06:53:38;;;;;;;11.33;2.80;;;7.30;99.90;;;;;;5011461;28;20550;-78
2022/04/11 06:56:06;;;;;;;6.07;2.53;;;7.40;99.90;;;;;;5019156;28;20472;-79
2022/04/11 06:58:33;;;;;;;5.47;2.30;;;7.50;99.90;;;;;;5014970;28;20501;-78
2022/04/11 07:01:00;;;;;;;5.93;2.03;;;7.70;99.90;;;;;;5014074;28;20505;-78
2022/04/11 07:03:30;;;;;;;6.13;2.73;;;7.70;99.90;;;;;;5011849;28;20453;-78
2022/04/11 07:06:01;;;;;;;3.13;1.60;;;7.90;99.90;;;;;;5010633;28;21030;-79
2022/04/11 07:08:31;;;;;;;5.93;1.77;;;7.90;99.90;;;;;;5009671;28;20458;-78
2022/04/11 07:10:58;;;;;;;6.20;2.80;;;8.10;99.90;;;;;;5012323;28;20485;-78
2022/04/11 07:13:25;;;;;;;6.63;1.80;;;8.20;99.90;;;;;;5016491;28;20458;-77
2022/04/11 07:15:52;;;;;;;3.73;2.10;;;8.40;99.90;;;;;;5009203;28;20485;-77
2022/04/11 07:18:19;;;;;;;8.80;2.53;;;8.60;99.90;;;;;;5004526;28;20486;-78
2022/04/11 07:20:46;;;;;;;3.13;1.50;;;8.80;99.90;;;;;;5013516;28;20475;-77
2022/04/11 07:23:14;;;;;;;7.57;2.00;;;9.10;99.90;;;;;;5019271;28;20455;-78
2022/04/11 07:25:41;;;;;;;4.30;2.27;;;9.70;99.90;;;;;;5012343;28;20460;-78
2022/04/11 07:28:08;;;;;;;4.70;1.70;;;10.20;99.90;;;;;;5000957;28;20544;-78
2022/04/11 07:30:34;;;;;;;7.63;2.20;;;10.60;99.90;;;;;;5001634;28;20522;-79
2022/04/11 07:33:01;;;;;;;5.10;1.97;;;10.90;99.90;;;;;;4994860;28;20459;-79
2022/04/11 07:35:28;;;;;;;4.87;2.20;;;11.00;99.90;;;;;;4999651;28;20455;-79
2022/04/11 07:37:57;;;;;;;3.13;2.17;;;11.00;99.90;;;;;;4999402;28;20483;-79
2022/04/11 07:40:26;;;;;;;6.23;3.13;;;11.10;99.90;;;;;;5007664;28;20477;-79
2022/04/11 07:42:52;;;;;;;6.33;2.77;;;11.30;99.90;;;;;;5006772;28;20998;-78
2022/04/11 07:45:19;;;;;;;6.10;1.93;;;11.30;99.90;;;;;;5015889;28;20468;-78
2022/04/11 07:47:46;;;;;;;7.40;2.37;;;11.50;99.90;;;;;;5004946;28;20465;-79
2022/04/11 07:50:13;;;;;;;4.13;2.30;;;11.90;99.90;;;;;;4996590;28;20926;-79
2022/04/11 07:52:41;;;;;;;7.57;2.60;;;12.50;99.90;;;;;;4996838;28;20489;-79
2022/04/11 07:55:09;;;;;;;3.83;1.73;;;13.00;99.90;;;;;;5002599;28;20466;-78
2022/04/11 07:57:37;;;;;;;6.30;2.03;;;13.60;99.90;;;;;;4994200;28;20473;-78
2022/04/11 08:00:06;;;;;;;3.27;1.90;;;14.70;99.90;;;;;;5004760;28;20471;-78
2022/04/11 08:02:33;;;;;;;6.70;2.60;;;14.80;99.90;;;;;;5006334;28;20461;-79
2022/04/11 08:05:02;;;;;;;3.43;2.03;;;15.20;99.90;;;;;;5001613;28;20984;-78
2022/04/11 08:07:31;;;;;;;4.00;2.53;;;15.60;99.90;;;;;;4994373;28;20454;-78
2022/04/11 08:09:58;;;;;;;4.27;2.20;;;16.20;99.90;;;;;;5006876;28;20482;-78
2022/04/11 08:12:24;;;;;;;4.40;2.03;;;16.80;98.50;;;;;;5011314;28;20461;-78
2022/04/11 08:14:53;;;;;;;4.20;2.27;;;17.40;96.70;;;;;;4999950;28;20452;-79
2022/04/11 08:17:19;;;;;;;8.30;2.80;;;18.70;93.30;;;;;;5008797;28;20546;-78
2022/04/11 08:19:46;;;;;;;6.33;1.97;;;18.20;91.90;;;;;;5008995;28;20853;-79
2022/04/11 08:22:13;;;;;;;5.17;2.33;;;19.40;88.50;;;;;;4995926;28;20986;-78
2022/04/11 08:24:40;;;;;;;5.40;2.10;;;19.00;87.60;;;;;;5005367;28;20971;-79
2022/04/11 08:27:07;;;;;;;5.07;2.33;;;19.70;80.10;;;;;;5004687;28;20455;-78
2022/04/11 08:29:33;;;;;;;3.93;2.40;;;20.10;79.60;;;;;;4995613;28;20490;-78
2022/04/11 08:32:01;;;;;;;5.47;2.13;;;19.30;77.20;;;;;;5011056;28;20483;-78
2022/04/11 08:34:28;;;;;;;5.10;1.77;;;20.80;77.40;;;;;;5007169;28;20482;-78
2022/04/11 08:36:55;;;;;;;7.60;2.93;;;21.30;74.30;;;;;;5003629;28;20462;-77
2022/04/11 08:39:22;;;;;;;4.80;2.10;;;21.70;69.60;;;;;;5001601;28;20493;-78
2022/04/11 08:41:48;;;;;;;3.53;1.83;;;21.30;67.30;;;;;;5014125;28;20448;-78
2022/04/11 08:44:16;;;;;;;4.43;2.00;;;23.30;68.10;;;;;;5009946;28;20462;-79
2022/04/11 08:46:43;;;;;;;3.70;2.03;;;23.20;61.30;;;;;;5011390;28;20477;-79
2022/04/11 08:49:12;;;;;;;3.80;2.23;;;23.70;60.60;;;;;;5001602;28;20826;-80
2022/04/11 08:51:39;;;;;;;3.70;2.10;;;23.70;63.90;;;;;;5002965;28;20470;-79
2022/04/11 08:54:06;;;;;;;14.10;8.10;;;22.70;60.30;;;;;;5010846;28;20466;-79
2022/04/11 08:56:34;;;;;;;5.60;2.53;;;23.00;59.50;;;;;;5005053;28;20454;-79
2022/04/11 08:59:01;;;;;;;3.73;2.13;;;24.40;57.40;;;;;;4993514;28;20490;-79
2022/04/11 09:01:28;;;;;;;4.07;2.07;;;24.20;55.70;;;;;;5005982;28;20477;-79
2022/04/11 09:03:54;;;;;;;6.07;1.80;;;24.50;55.60;;;;;;5018714;28;20453;-79
2022/04/11 09:06:23;;;;;;;4.30;2.10;;;24.70;55.50;;;;;;5018960;28;20456;-79
2022/04/11 09:08:51;;;;;;;6.47;2.03;;;25.00;55.00;;;;;;5017366;28;20450;-79
2022/04/11 09:11:30;;;;;;;4.10;1.80;;;24.30;55.50;;;;;;5008706;28;20481;-79
2022/04/11 09:13:57;;;;;;;4.37;2.80;;;24.10;54.60;;;;;;4999720;28;20454;-79
2022/04/11 09:16:24;;;;;;;3.23;1.87;;;24.30;52.00;;;;;;5002819;28;20494;-79
2022/04/11 09:18:53;;;;;;;4.27;1.80;;;25.20;54.60;;;;;;4999434;28;20483;-79
2022/04/11 09:21:22;;;;;;;3.60;1.63;;;24.60;54.60;;;;;;5008679;28;20473;-79
2022/04/11 09:24:11;;;;;;;4.00;1.70;;;24.60;51.90;;;;;;5000707;28;20812;-79
2022/04/11 09:26:40;;;;;;;2.83;1.90;;;25.00;52.60;;;;;;5000786;28;20454;-79
2022/04/11 09:29:07;;;;;;;3.10;1.80;;;25.50;51.60;;;;;;5001031;28;20485;-80
2022/04/11 09:31:34;;;;;;;3.90;2.23;;;25.40;52.80;;;;;;5004829;28;20454;-79
2022/04/11 09:34:14;;;;;;;3.83;1.70;;;25.60;51.50;;;;;;5018104;28;20475;-80
2022/04/11 09:36:49;;;;;;;4.10;2.10;;;26.80;51.60;;;;;;5010172;28;20542;-79
2022/04/11 09:39:21;;;;;;;3.40;1.90;;;27.00;53.10;;;;;;5014274;28;20832;-78
2022/04/11 09:41:49;;;;;;;7.00;2.63;;;27.10;50.20;;;;;;5014953;28;20871;-79
2022/04/11 09:44:27;;;;;;;6.60;2.37;;;28.00;51.60;;;;;;5007883;28;20461;-79
2022/04/11 09:46:55;;;;;;;4.37;1.90;;;28.00;48.40;;;;;;5030140;28;20437;-80
2022/04/11 09:49:22;;;;;;;3.10;2.07;;;27.80;46.30;;;;;;5039854;28;20452;-80
2022/04/11 09:52:11;;;;;;;4.23;2.37;;;28.50;48.70;;;;;;5015805;28;20493;-79
2022/04/11 09:54:42;;;;;;;3.80;1.80;;;27.80;46.80;;;;;;5016297;28;20464;-79
2022/04/11 09:57:09;;;;;;;4.27;1.67;;;27.30;48.40;;;;;;4998486;28;21013;-80
2022/04/11 09:59:39;;;;;;;3.80;1.93;;;27.40;48.30;;;;;;5017677;28;20923;-79
2022/04/11 10:02:07;;;;;;;3.77;1.73;;;27.10;48.00;;;;;;5011603;28;20462;-79
2022/04/11 10:04:35;;;;;;;3.40;2.00;;;28.00;48.40;;;;;;5006237;28;20453;-80
2022/04/11 10:07:02;;;;;;;4.90;2.47;;;28.00;47.10;;;;;;5006445;28;20453;-79
2022/04/11 10:09:29;;;;;;;3.73;2.17;;;28.40;47.10;;;;;;5007392;28;21003;-79
2022/04/11 10:11:57;;;;;;;5.00;2.17;;;29.00;43.50;;;;;;5013292;28;20460;-80
2022/04/11 10:14:27;;;;;;;3.03;2.20;;;27.90;46.40;;;;;;5018037;28;20465;-80
2022/04/11 10:16:57;;;;;;;7.33;1.90;;;28.20;43.70;;;;;;5019922;28;20905;-79
2022/04/11 10:19:26;;;;;;;3.33;2.00;;;27.60;45.10;;;;;;5018742;28;20485;-79
2022/04/11 10:21:57;;;;;;;3.57;1.90;;;27.80;42.20;;;;;;5018994;28;20454;-79
2022/04/11 10:24:33;;;;;;;3.40;1.60;;;27.70;46.30;;;;;;5015844;28;20514;-79
2022/04/11 10:27:22;;;;;;;2.97;2.10;;;28.60;46.50;;;;;;5000722;28;20457;-80
2022/04/11 10:29:50;;;;;;;3.37;1.73;;;29.20;43.30;;;;;;5038368;28;20520;-79
2022/04/11 10:32:19;;;;;;;3.50;2.70;;;29.60;43.10;;;;;;5038777;28;20456;-79
2022/04/11 10:34:54;;;;;;;4.33;2.20;;;30.60;43.50;;;;;;5021796;28;20829;-80
2022/04/11 10:37:23;;;;;;;3.33;2.00;;;29.80;44.40;;;;;;5017929;28;20453;-80
2022/04/11 10:39:51;;;;;;;3.60;2.13;;;30.30;42.50;;;;;;5019151;28;20499;-79
2022/04/11 10:42:25;;;;;;;3.30;2.30;;;31.50;39.70;;;;;;5012296;28;20541;-80
2022/04/11 10:44:54;;;;;;;3.80;1.90;;;29.90;39.20;;;;;;4999254;28;21049;-80
2022/04/11 10:47:29;;;;;;;3.87;1.60;;;30.50;42.80;;;;;;5000809;28;20889;-80
2022/04/11 10:50:22;;;;;;;5.63;2.17;;;31.70;43.80;;;;;;5003711;28;20474;-79
2022/04/11 10:53:11;;;;;;;4.13;1.70;;;31.00;43.80;;;;;;5001435;28;20986;-79
2022/04/11 10:55:57;;;;;;;4.37;2.10;;;31.30;43.00;;;;;;4999193;28;20458;-79
2022/04/11 10:58:44;;;;;;;4.47;2.10;;;31.30;40.90;;;;;;5000759;28;20474;-80
2022/04/11 11:01:11;;;;;;;3.40;1.87;;;31.00;38.50;;;;;;4999487;28;20470;-80
2022/04/11 11:03:39;;;;;;;2.90;1.83;;;29.80;40.10;;;;;;4999192;28;20450;-79
2022/04/11 11:06:21;;;;;;;3.80;2.00;;;30.60;38.60;;;;;;4998181;28;20466;-80
2022/04/11 11:08:48;;;;;;;2.50;1.40;;;30.30;37.80;;;;;;4998973;28;20508;-80
2022/04/11 11:11:23;;;;;;;3.20;1.80;;;31.00;40.00;;;;;;4998496;28;20478;-80
2022/04/11 11:13:52;;;;;;;4.90;2.70;;;31.70;37.90;;;;;;4998215;28;20450;-79
2022/04/11 11:16:39;;;;;;;3.13;1.77;;;31.50;36.40;;;;;;5000076;28;20462;-80
2022/04/11 11:19:13;;;;;;;4.13;1.80;;;32.20;40.30;;;;;;4996632;28;20482;-79
2022/04/11 11:22:04;;;;;;;4.57;2.40;;;32.30;38.50;;;;;;4998738;28;20463;-80
2022/04/11 11:24:31;;;;;;;3.80;2.10;;;32.10;39.30;;;;;;5017788;28;20434;-81
2022/04/11 11:27:03;;;;;;;2.90;2.00;;;33.10;37.80;;;;;;5008629;28;20896;-80
2022/04/11 11:29:33;;;;;;;5.93;2.80;;;32.00;34.90;;;;;;5007132;28;20990;-80
2022/04/11 11:32:01;;;;;;;3.60;1.73;;;31.70;39.80;;;;;;5008306;28;20469;-81
2022/04/11 11:34:30;;;;;;;5.60;2.50;;;32.50;37.40;;;;;;5005280;28;20455;-79
2022/04/11 11:37:01;;;;;;;5.77;2.20;;;32.30;36.80;;;;;;5004629;28;20458;-80
2022/04/11 11:39:30;;;;;;;3.87;2.20;;;33.10;36.30;;;;;;5006323;28;20911;-82
2022/04/11 11:42:02;;;;;;;3.60;1.70;;;32.50;36.90;;;;;;5004496;28;20881;-80
2022/04/11 11:44:31;;;;;;;3.03;1.90;;;32.40;38.30;;;;;;5008284;28;20828;-81
2022/04/11 11:47:00;;;;;;;3.77;2.07;;;31.40;37.90;;;;;;5002774;28;20457;-81
2022/04/11 11:49:29;;;;;;;3.60;2.10;;;31.10;35.50;;;;;;5014066;28;20478;-79
2022/04/11 11:51:56;;;;;;;3.50;1.90;;;30.70;36.90;;;;;;5000504;28;20450;-80
2022/04/11 11:54:36;;;;;;;4.23;2.03;;;30.90;38.70;;;;;;5018212;28;20476;-80
2022/04/11 11:57:12;;;;;;;5.73;2.10;;;29.90;39.10;;;;;;5014323;28;20449;-79
2022/04/11 11:59:51;;;;;;;4.53;2.17;;;30.20;36.70;;;;;;4995880;28;20497;-80
2022/04/11 12:05:04;;;;;;;2.80;1.90;;;30.70;38.30;;;;;;5001987;28;20453;-80
2022/04/11 12:07:31;;;;;;;4.57;2.00;;;31.10;35.80;;;;;;5013673;28;20457;-80
2022/04/11 12:09:58;;;;;;;3.00;1.80;;;31.70;35.20;;;;;;5010523;28;20469;-79
2022/04/11 12:12:25;;;;;;;4.83;2.40;;;32.30;41.60;;;;;;5009942;28;20454;-80
2022/04/11 12:15:06;;;;;;;4.00;2.13;;;32.40;37.10;;;;;;5013568;28;21359;-79
2022/04/11 12:17:34;;;;;;;4.10;2.03;;;33.80;35.40;;;;;;4996781;28;20467;-80
2022/04/11 12:20:09;;;;;;;3.10;1.70;;;33.20;35.70;;;;;;4999999;28;20501;-79
2022/04/11 12:22:36;;;;;;;3.70;2.30;;;33.50;37.40;;;;;;5017315;28;20476;-80
2022/04/11 12:25:21;;;;;;;3.87;2.37;;;34.20;34.80;;;;;;4995775;28;20469;-78
2022/04/11 12:27:49;;;;;;;3.83;2.07;;;33.40;34.40;;;;;;5018821;28;20461;-80
2022/04/11 12:30:18;;;;;;;2.77;1.80;;;33.50;39.10;;;;;;5017940;28;20482;-80
2022/04/11 12:32:45;;;;;;;4.97;2.17;;;34.00;37.60;;;;;;5005300;28;20458;-80
2022/04/11 12:35:17;;;;;;;4.03;2.17;;;34.80;36.20;;;;;;4996746;28;20455;-80
2022/04/11 12:37:48;;;;;;;3.97;2.60;;;34.90;35.00;;;;;;5007635;28;20457;-79
2022/04/11 12:40:15;;;;;;;3.67;2.40;;;34.30;33.50;;;;;;5006686;28;20489;-79
2022/04/11 12:42:42;;;;;;;2.83;2.10;;;34.10;33.00;;;;;;5002238;28;20446;-80
2022/04/11 12:45:12;;;;;;;3.80;2.10;;;32.70;35.80;;;;;;5015050;28;20464;-81
2022/04/11 12:48:01;;;;;;;3.87;2.40;;;32.20;36.40;;;;;;5017835;28;20453;-79
2022/04/11 12:50:28;;;;;;;3.90;2.53;;;32.10;37.10;;;;;;4998890;28;20470;-80
2022/04/11 12:52:55;;;;;;;3.23;2.40;;;33.20;36.50;;;;;;4998777;28;20451;-80
2022/04/11 12:55:25;;;;;;;5.43;2.53;;;33.00;35.50;;;;;;5014601;28;20445;-80
2022/04/11 12:58:04;;;;;;;2.80;2.13;;;33.20;37.20;;;;;;4998989;28;20923;-80
2022/04/11 13:00:32;;;;;;;4.37;2.00;;;33.80;34.50;;;;;;5007699;28;20496;-80
2022/04/11 13:02:59;;;;;;;4.60;2.47;;;33.20;35.40;;;;;;5016522;28;20460;-78